Data for 11/05/2008

Time Sea-Level Adjusted Pressure Absolute Pressure Temperature Relative Humidity Dew Point   
(mb) (inHg) (mb) (inHg) (C) (F) (%) (C) (F)
00:05 1009 29.8 839 24.78 0.5 32.9 90 -1 30.1
00:10 1009 29.8 839 24.78 0.4 32.8 89 -1.1 30
00:15 1009 29.8 839 24.78 0.4 32.8 90 -1 30.3
00:20 1010 29.83 839 24.78 0.4 32.7 90 -1 30.2
00:25 1010 29.83 839 24.78 0.4 32.7 91 -0.9 30.3
00:30 1010 29.83 839 24.78 0.4 32.8 91 -0.9 30.3
00:35 1010 29.83 839 24.78 0.5 32.8 91 -0.9 30.3
00:40 1010 29.83 839 24.78 0.5 32.9 91 -0.8 30.5
00:45 1010 29.83 839 24.78 0.5 32.9 91 -0.8 30.6
00:50 1010 29.83 839 24.78 0.5 32.9 91 -0.8 30.6
00:55 1010 29.83 839 24.78 0.5 32.9 91 -0.8 30.6
01:00 1010 29.83 839 24.78 0.6 33 92 -0.6 30.9
01:05 1010 29.83 839 24.78 0.5 32.9 92 -0.6 30.9
01:10 1010 29.83 839 24.78 0.5 32.9 93 -0.6 31
01:15 1010 29.83 839 24.78 0.5 33 93 -0.5 31
01:20 1010 29.83 839 24.78 0.6 33.1 93 -0.4 31.3
01:25 1010 29.83 839 24.78 0.6 33.1 93 -0.4 31.3
01:30 1010 29.83 840 24.81 0.5 32.9 93 -0.5 31.1
01:35 1010 29.83 840 24.81 0.5 33 91 -0.7 30.7
01:40 1010 29.83 840 24.81 0.6 33 89 -1 30.1
01:45 1010 29.83 840 24.81 0.6 33.1 88 -1.2 29.8
01:50 1010 29.83 840 24.81 0.7 33.2 86 -1.4 29.4
01:55 1011 29.85 840 24.81 0.7 33.3 83 -1.9 28.6
02:00 1011 29.85 840 24.81 0.8 33.4 81 -2 28.3
02:05 1011 29.85 840 24.81 0.8 33.5 81 -2 28.4
02:10 1011 29.85 840 24.81 0.8 33.5 81 -2.1 28.3
02:15 1011 29.85 840 24.81 0.7 33.3 78 -2.7 27.1
02:20 1011 29.85 840 24.81 0.7 33.3 78 -2.7 27.1
02:25 1011 29.85 840 24.81 0.7 33.2 76 -3.2 26.3
02:30 1011 29.85 840 24.81 0.6 33 74 -3.6 25.5
02:35 1011 29.85 840 24.81 0.5 32.8 74 -3.6 25.5
02:40 1011 29.85 840 24.81 0.4 32.7 75 -3.5 25.7
02:45 1011 29.85 840 24.81 0.3 32.6 75 -3.6 25.5
02:50 1011 29.85 840 24.81 0.3 32.6 75 -3.6 25.5
02:55 1011 29.85 840 24.81 0.2 32.4 74 -3.8 25.1
03:00 1011 29.85 840 24.81 0.2 32.4 73 -4.1 24.6
03:05 1011 29.85 840 24.81 0.2 32.3 74 -4 24.9
03:10 1011 29.85 840 24.81 0.2 32.3 73 -4.1 24.6
03:15 1011 29.85 840 24.81 0.1 32.3 74 -4 24.8
03:20 1011 29.85 840 24.81 0.1 32.3 74 -4 24.8
03:25 1011 29.85 840 24.81 0.1 32.2 74 -4 24.8
03:30 1011 29.85 840 24.81 0.2 32.3 72 -4.3 24.3
03:35 1011 29.85 840 24.81 0.2 32.4 69 -4.7 23.5
03:40 1011 29.85 841 24.83 0.2 32.4 69 -4.8 23.3
03:45 1011 29.85 841 24.83 0.3 32.5 70 -4.6 23.7
03:50 1011 29.85 841 24.83 0.2 32.4 69 -4.9 23.3
03:55 1012 29.88 841 24.83 0.2 32.4 68 -5 23
04:00 1012 29.88 841 24.83 0.2 32.4 66 -5.3 22.4
04:05 1012 29.88 841 24.83 0.2 32.3 67 -5.2 22.6
04:10 1012 29.88 841 24.83 0.2 32.3 64 -5.7 21.7
04:15 1012 29.88 841 24.83 0.2 32.4 65 -5.6 22
04:20 1012 29.88 841 24.83 0.2 32.4 63 -6.1 21
04:25 1012 29.88 841 24.83 0.2 32.4 64 -5.7 21.7
04:30 1012 29.88 841 24.83 0.2 32.4 64 -5.8 21.5
04:35 1012 29.88 841 24.83 0.2 32.3 63 -6 21.2
04:40 1012 29.88 841 24.83 0.2 32.3 63 -6 21.2
04:45 1012 29.88 841 24.83 0.1 32.2 63 -6.1 20.9
04:50 1012 29.88 841 24.83 0.1 32.2 62 -6.3 20.6
04:55 1012 29.88 841 24.83 0.1 32.3 62 -6.3 20.6
05:00 1012 29.88 841 24.83 0.1 32.2 63 -6.1 20.9
05:05 1012 29.88 842 24.86 0.1 32.1 64 -6 21.1
05:10 1012 29.88 842 24.86 -0 32 62 -6.4 20.6
05:15 1012 29.88 842 24.86 0 32 61 -6.7 19.9
05:20 1012 29.88 842 24.86 0 32.1 62 -6.4 20.5
05:25 1013 29.91 842 24.86 0 32 61 -6.7 20
05:30 1013 29.91 842 24.86 0 32 61 -6.7 20
05:35 1013 29.91 842 24.86 -0 32 60 -6.8 19.8
05:40 1013 29.91 842 24.86 -0 31.9 60 -6.8 19.8
05:45 1013 29.91 842 24.86 -0.1 31.9 60 -6.9 19.6
05:50 1013 29.91 842 24.86 -0 31.9 60 -6.9 19.6
05:55 1013 29.91 842 24.86 -0 31.9 61 -6.8 19.8
06:00 1013 29.91 842 24.86 -0.1 31.9 60 -7 19.5
06:05 1013 29.91 842 24.86 -0.1 31.8 61 -6.7 20
06:10 1013 29.91 842 24.86 -0.1 31.7 61 -6.9 19.6
06:15 1013 29.91 842 24.86 -0.1 31.8 60 -6.9 19.6
06:20 1013 29.91 842 24.86 -0.2 31.7 60 -7.1 19.2
06:25 1013 29.91 842 24.86 -0.1 31.8 60 -6.9 19.5
06:30 1013 29.91 842 24.86 -0.1 31.8 60 -6.9 19.5
06:35 1013 29.91 842 24.86 -0.1 31.8 60 -6.9 19.6
06:40 1013 29.91 843 24.89 -0.1 31.8 60 -7.1 19.3
06:45 1013 29.91 843 24.89 -0.1 31.8 59 -7.2 19.1
06:50 1014 29.94 843 24.89 -0.1 31.9 59 -7.1 19.3
06:55 1014 29.94 843 24.89 -0.1 31.8 59 -7.1 19.2
07:00 1014 29.94 843 24.89 -0.1 31.8 60 -7 19.4
07:05 1014 29.94 843 24.89 -0.1 31.9 60 -7 19.4
07:10 1014 29.94 843 24.89 -0.1 31.8 60 -6.9 19.6
07:15 1014 29.94 843 24.89 -0.1 31.8 61 -6.8 19.7
07:20 1014 29.94 843 24.89 -0.2 31.6 61 -6.8 19.8
07:25 1014 29.94 843 24.89 -0.2 31.6 62 -6.7 20
07:30 1014 29.94 843 24.89 -0.2 31.6 61 -6.8 19.7
07:35 1014 29.94 843 24.89 -0.2 31.6 61 -6.8 19.8
07:40 1014 29.94 843 24.89 -0.2 31.6 62 -6.7 20
07:45 1014 29.94 844 24.92 -0.2 31.6 61 -6.8 19.8
07:50 1014 29.94 844 24.92 -0.2 31.6 61 -6.8 19.8
07:55 1014 29.94 844 24.92 -0.2 31.6 61 -6.9 19.6
08:00 1015 29.97 844 24.92 -0.2 31.7 60 -7.1 19.3
08:05 1015 29.97 844 24.92 -0.2 31.7 59 -7.2 19
08:10 1015 29.97 844 24.92 -0.1 31.8 59 -7.2 19.1
08:15 1015 29.97 844 24.92 -0.1 31.8 59 -7.2 19
08:20 1015 29.97 844 24.92 -0.1 31.8 59 -7.1 19.2
08:25 1015 29.97 844 24.92 -0.1 31.8 60 -7 19.5
08:30 1015 29.97 844 24.92 -0.1 31.8 59 -7.1 19.2
08:35 1015 29.97 844 24.92 -0.1 31.9 59 -7.2 19
08:40 1015 29.97 844 24.92 -0 32 58 -7.3 18.8
08:45 1015 29.97 844 24.92 -0 32 57 -7.6 18.3
08:50 1015 29.97 844 24.92 0 32.1 57 -7.5 18.4
08:55 1015 29.97 844 24.92 0.1 32.1 58 -7.3 18.8
09:00 1015 29.97 845 24.95 0.1 32.2 56 -7.6 18.4
09:05 1015 29.97 845 24.95 0.2 32.3 56 -7.5 18.5
09:10 1015 29.97 845 24.95 0.2 32.3 56 -7.6 18.3
09:15 1016 30 845 24.95 0.2 32.4 56 -7.7 18.2
09:20 1016 30 845 24.95 0.2 32.4 56 -7.4 18.6
09:25 1016 30 845 24.95 0.3 32.5 56 -7.5 18.4
09:30 1016 30 845 24.95 0.3 32.5 56 -7.5 18.5
09:35 1016 30 845 24.95 0.3 32.6 55 -7.6 18.4
09:40 1016 30 845 24.95 0.4 32.6 54 -7.8 17.9
09:45 1016 30 845 24.95 0.4 32.7 53 -8 17.6
09:50 1016 30 845 24.95 0.4 32.7 52 -8.3 17.1
09:55 1016 30 845 24.95 0.4 32.8 53 -8 17.5
10:00 1016 30 845 24.95 0.5 32.8 54 -7.9 17.7
10:05 1016 30 845 24.95 0.5 32.8 54 -7.8 18
10:10 1016 30 845 24.95 0.5 32.8 53 -7.9 17.7
10:15 1016 30 845 24.95 0.5 32.9 54 -7.7 18.2
10:20 1016 30 846 24.98 0.6 33.1 54 -7.7 18.2
10:25 1016 30 846 24.98 0.7 33.2 53 -7.9 17.8
10:30 1017 30.03 846 24.98 0.7 33.3 53 -7.9 17.8
10:35 1017 30.03 846 24.98 0.8 33.4 54 -7.6 18.4
10:40 1017 30.03 846 24.98 0.9 33.6 53 -7.7 18.2
10:45 1017 30.03 846 24.98 0.9 33.6 54 -7.4 18.8
10:50 1017 30.03 846 24.98 0.9 33.6 52 -8 17.6
10:55 1017 30.03 846 24.98 0.9 33.6 53 -7.7 18.1
11:00 1017 30.03 846 24.98 0.9 33.7 51 -8 17.6
11:05 1017 30.03 846 24.98 1 33.8 51 -8.1 17.4
11:10 1017 30.03 846 24.98 1 33.8 52 -7.7 18.1
11:15 1017 30.03 846 24.98 1.1 34 53 -7.5 18.4
11:20 1017 30.03 846 24.98 1.2 34.1 50 -8.1 17.4
11:25 1017 30.03 846 24.98 1.2 34.2 50 -8 17.6
11:30 1017 30.03 846 24.98 1.2 34.2 49 -8.4 16.8
11:35 1017 30.03 846 24.98 1.2 34.2 52 -7.7 18.1
11:40 1017 30.03 846 24.98 1.4 34.5 50 -7.9 17.8
11:45 1017 30.03 846 24.98 1.5 34.6 51 -7.5 18.4
11:50 1017 30.03 846 24.98 1.4 34.6 52 -7.5 18.6
11:55 1017 30.03 846 24.98 1.5 34.7 50 -7.8 17.9
12:00 1017 30.03 846 24.98 1.5 34.7 51 -7.5 18.5
12:05 1017 30.03 846 24.98 1.5 34.8 51 -7.6 18.2
12:10 1017 30.03 846 24.98 1.5 34.8 49 -7.9 17.7
12:15 1017 30.03 846 24.98 1.6 34.8 50 -7.7 18.1
12:20 1017 30.03 846 24.98 1.5 34.7 51 -7.6 18.3
12:25 1017 30.03 846 24.98 1.7 35 50 -7.6 18.3
12:30 1017 30.03 846 24.98 1.6 34.8 50 -7.7 18.1
12:35 1017 30.03 847 25.01 1.6 34.8 52 -7.3 18.8
12:40 1017 30.03 847 25.01 1.7 35 51 -7.4 18.7
12:45 1017 30.03 847 25.01 1.7 35 49 -8 17.6
12:50 1017 30.03 847 25.01 1.7 35 49 -7.9 17.8
12:55 1017 30.03 847 25.01 1.6 34.9 49 -8 17.6
13:00 1017 30.03 847 25.01 1.6 34.9 50 -7.7 18.1
13:05 1018 30.06 847 25.01 1.8 35.3 49 -7.7 18.1
13:10 1018 30.06 847 25.01 1.8 35.3 48 -8 17.6
13:15 1018 30.06 847 25.01 1.9 35.4 47 -8.2 17.3
13:20 1018 30.06 847 25.01 1.8 35.2 47 -8.3 17.1
13:25 1018 30.06 847 25.01 1.7 35.1 46 -8.6 16.5
13:30 1018 30.06 847 25.01 1.7 35.1 47 -8.6 16.6
13:35 1018 30.06 847 25.01 1.8 35.2 47 -8.4 17
13:40 1018 30.06 847 25.01 1.8 35.2 47 -8.5 16.7
13:45 1018 30.06 847 25.01 1.7 35 48 -8.3 17
13:50 1018 30.06 847 25.01 1.7 35.1 48 -8.3 17.1
13:55 1018 30.06 847 25.01 1.7 35 48 -8.1 17.4
14:00 1018 30.06 847 25.01 1.8 35.2 47 -8.4 16.9
14:05 1018 30.06 847 25.01 1.8 35.2 47 -8.5 16.8
14:10 1018 30.06 847 25.01 1.8 35.3 47 -8.4 16.8
14:15 1018 30.06 847 25.01 1.8 35.2 47 -8.5 16.8
14:20 1018 30.06 847 25.01 1.8 35.2 47 -8.4 16.8
14:25 1018 30.06 847 25.01 1.8 35.2 46 -8.6 16.4
14:30 1018 30.06 848 25.04 1.7 35.1 47 -8.5 16.6
14:35 1018 30.06 848 25.04 1.8 35.2 48 -8.1 17.5
14:40 1018 30.06 848 25.04 1.9 35.4 49 -7.7 18.2
14:45 1019 30.09 848 25.04 2 35.6 48 -7.8 17.9
14:50 1019 30.09 848 25.04 2 35.7 48 -7.8 18
14:55 1019 30.09 848 25.04 2 35.6 49 -7.7 18.1
15:00 1019 30.09 848 25.04 1.9 35.5 49 -7.6 18.3
15:05 1019 30.09 848 25.04 2 35.7 49 -7.5 18.6
15:10 1019 30.09 848 25.04 2.1 35.9 48 -7.7 18.2
15:15 1019 30.09 848 25.04 2 35.7 49 -7.6 18.4
15:20 1019 30.09 848 25.04 2 35.5 48 -7.8 18
15:25 1019 30.09 848 25.04 1.9 35.4 48 -8 17.6
15:30 1019 30.09 848 25.04 2 35.5 50 -7.4 18.7
15:35 1019 30.09 848 25.04 2 35.6 50 -7.4 18.6
15:40 1019 30.09 848 25.04 1.9 35.4 50 -7.5 18.5
15:45 1019 30.09 848 25.04 1.9 35.4 51 -7.3 18.8
15:50 1019 30.09 848 25.04 1.9 35.4 51 -7.2 19
15:55 1019 30.09 848 25.04 1.9 35.4 52 -7 19.4
16:00 1019 30.09 848 25.04 1.9 35.4 51 -7.3 18.9
16:05 1019 30.09 848 25.04 1.9 35.5 52 -6.9 19.6
16:10 1019 30.09 849 25.07 1.9 35.4 52 -7 19.5
16:15 1019 30.09 849 25.07 1.9 35.4 52 -6.9 19.5
16:20 1019 30.09 849 25.07 1.9 35.4 53 -6.7 19.9
16:25 1019 30.09 849 25.07 1.9 35.4 54 -6.6 20.2
16:30 1020 30.12 849 25.07 1.8 35.2 55 -6.3 20.6
16:35 1020 30.12 849 25.07 1.6 35 57 -5.9 21.3
16:40 1020 30.12 849 25.07 1.4 34.6 58 -6 21.2
16:45 1020 30.12 849 25.07 1.4 34.5 57 -6.2 20.8
16:50 1020 30.12 849 25.07 1.4 34.6 55 -6.7 19.9
16:55 1020 30.12 849 25.07 1.5 34.7 57 -6.2 20.8
17:00 1020 30.12 849 25.07 1.5 34.7 54 -6.8 19.8
17:05 1020 30.12 849 25.07 1.5 34.7 54 -6.7 19.9
17:10 1020 30.12 849 25.07 1.6 34.9 53 -6.9 19.6
17:15 1020 30.12 849 25.07 1.5 34.8 55 -6.6 20.1
17:20 1020 30.12 849 25.07 1.5 34.7 57 -6.2 20.9
17:25 1020 30.12 849 25.07 1.4 34.5 58 -6.1 21.1
17:30 1020 30.12 849 25.07 1.3 34.4 56 -6.5 20.4
17:35 1020 30.12 849 25.07 1.3 34.3 56 -6.4 20.4
17:40 1020 30.12 849 25.07 1.2 34.2 56 -6.6 20.1
17:45 1020 30.12 849 25.07 1.2 34.1 54 -7.1 19.3
17:50 1020 30.12 850 25.1 1.2 34.1 56 -6.7 19.9
17:55 1020 30.12 850 25.1 1.1 34.1 58 -6.2 20.8
18:00 1020 30.12 850 25.1 1.1 33.9 58 -6.3 20.7
18:05 1020 30.12 850 25.1 1 33.9 58 -6.3 20.6
18:10 1021 30.15 850 25.1 1 33.8 56 -6.9 19.6
18:15 1021 30.15 850 25.1 0.9 33.6 56 -6.8 19.7
18:20 1021 30.15 850 25.1 0.8 33.4 58 -6.5 20.2
18:25 1021 30.15 850 25.1 0.7 33.2 59 -6.5 20.2
18:30 1021 30.15 850 25.1 0.6 33 59 -6.6 20.2
18:35 1021 30.15 850 25.1 0.5 32.9 59 -6.7 20
18:40 1021 30.15 850 25.1 0.4 32.6 59 -6.7 20
18:45 1021 30.15 850 25.1 0.3 32.6 59 -6.8 19.7
18:50 1021 30.15 850 25.1 0.2 32.4 58 -7 19.4
18:55 1021 30.15 850 25.1 0.2 32.3 59 -7 19.4
19:00 1021 30.15 850 25.1 0.1 32.3 58 -7.2 19.1
19:05 1021 30.15 850 25.1 0.1 32.2 57 -7.4 18.7
19:10 1021 30.15 850 25.1 0.2 32.3 56 -7.6 18.3
19:15 1021 30.15 850 25.1 0.1 32.1 57 -7.5 18.5
19:20 1021 30.15 850 25.1 0 32.1 58 -7.2 19.1
19:25 1021 30.15 850 25.1 -0 32 59 -7 19.4
19:30 1021 30.15 850 25.1 -0.1 31.8 60 -6.9 19.6
19:35 1021 30.15 850 25.1 -0.2 31.6 61 -6.8 19.8
19:40 1021 30.15 850 25.1 -0.3 31.5 61 -6.9 19.6
19:45 1021 30.15 850 25.1 -0.4 31.4 62 -6.8 19.7
19:50 1021 30.15 850 25.1 -0.4 31.3 63 -6.6 20.1
19:55 1021 30.15 850 25.1 -0.6 30.9 65 -6.4 20.4
20:00 1021 30.15 850 25.1 -0.8 30.5 66 -6.4 20.4
20:05 1021 30.15 850 25.1 -1 30.2 65 -6.8 19.8
20:10 1021 30.15 850 25.1 -1.1 30 65 -6.8 19.7
20:15 1021 30.15 851 25.13 -1.4 29.6 65 -7.2 19.1
20:20 1021 30.15 851 25.13 -1.4 29.5 65 -7.2 19.1
20:25 1021 30.15 851 25.13 -1.4 29.5 65 -7.1 19.1
20:30 1021 30.15 851 25.13 -1.4 29.4 64 -7.4 18.7
20:35 1021 30.15 851 25.13 -1.4 29.5 64 -7.3 18.8
20:40 1022 30.18 851 25.13 -1.3 29.6 64 -7.3 18.8
20:45 1022 30.18 851 25.13 -1.4 29.5 65 -7.2 19.1
20:50 1022 30.18 851 25.13 -1.6 29.2 65 -7.2 19
20:55 1022 30.18 851 25.13 -1.6 29 64 -7.5 18.5
21:00 1022 30.18 851 25.13 -1.6 29.1 64 -7.5 18.4
21:05 1022 30.18 851 25.13 -1.7 28.9 65 -7.5 18.4
21:10 1022 30.18 851 25.13 -2 28.4 66 -7.6 18.4
21:15 1022 30.18 851 25.13 -2 28.3 64 -8 17.6
21:20 1022 30.18 851 25.13 -1.9 28.6 63 -8 17.5
21:25 1022 30.18 851 25.13 -1.7 28.9 61 -8.3 17.1
21:30 1022 30.18 851 25.13 -1.4 29.4 60 -8.1 17.4
21:35 1022 30.18 851 25.13 -1.3 29.7 60 -8.1 17.4
21:40 1022 30.18 851 25.13 -1.2 29.9 59 -8.2 17.2
21:45 1022 30.18 851 25.13 -1 30.1 58 -8.3 17.1
21:50 1022 30.18 851 25.13 -1 30.2 57 -8.4 16.9
21:55 1022 30.18 851 25.13 -1.1 30 58 -8.4 16.9
22:00 1022 30.18 852 25.16 -1.5 29.4 58 -8.7 16.4
22:05 1022 30.18 852 25.16 -1.7 28.9 59 -8.8 16.2
22:10 1022 30.18 851 25.13 -1.9 28.6 58 -9 15.7
22:15 1022 30.18 851 25.13 -2.2 28 60 -9 15.8
22:20 1022 30.18 851 25.13 -2.3 27.9 59 -9.3 15.2
22:25 1022 30.18 852 25.16 -2.4 27.7 59 -9.3 15.3
22:30 1022 30.18 852 25.16 -2.4 27.7 59 -9.4 15.1
22:35 1022 30.18 852 25.16 -2.3 27.9 58 -9.4 15.1
22:40 1022 30.18 852 25.16 -2.3 27.9 58 -9.4 15.1
22:45 1022 30.18 852 25.16 -2.3 27.8 58 -9.5 14.9
22:50 1022 30.18 852 25.16 -2.3 27.8 58 -9.5 14.9
22:55 1023 30.21 852 25.16 -2.3 27.9 58 -9.5 14.9
23:00 1023 30.21 852 25.16 -2.2 28 57 -9.5 14.8
23:05 1023 30.21 852 25.16 -2.2 28.1 58 -9.5 15
23:10 1023 30.21 852 25.16 -2.2 28.1 58 -9.4 15.1
23:15 1023 30.21 852 25.16 -2.2 28.1 57 -9.5 14.9
23:20 1023 30.21 852 25.16 -2.2 28.1 57 -9.5 14.9
23:25 1023 30.21 852 25.16 -2.3 27.8 58 -9.6 14.8
23:30 1023 30.21 852 25.16 -2.4 27.8 57 -9.9 14.3
23:35 1023 30.21 852 25.16 -2.3 27.8 57 -9.7 14.5
23:40 1023 30.21 852 25.16 -2.4 27.7 56 -10 14.1
23:45 1023 30.21 852 25.16 -2.4 27.7 56 -10.1 13.8
23:50 1023 30.21 852 25.16 -2.3 27.9 55 -10.1 13.9
23:55 1023 30.21 852 25.16 -2.3 27.9 55 -10.1 13.8
24:00 1023 30.21 852 25.16 -2.5 27.4 57 -10 14